createdAt,value
2019-03-19T00:00:08.107Z,22.73
2019-03-19T00:01:09.107Z,22.68
2019-03-19T00:02:08.680Z,22.75
2019-03-19T00:03:08.770Z,22.75
2019-03-19T00:04:10.999Z,22.75
2019-03-19T00:05:08.575Z,22.73
2019-03-19T00:06:09.693Z,22.73
2019-03-19T00:07:08.131Z,22.70
2019-03-19T00:08:08.017Z,22.78
2019-03-19T00:09:08.018Z,22.70
2019-03-19T00:10:11.263Z,22.73
2019-03-19T00:11:08.303Z,22.70
2019-03-19T00:12:11.114Z,22.73
2019-03-19T00:13:08.491Z,22.78
2019-03-19T00:14:10.888Z,22.68
2019-03-19T00:15:09.270Z,22.73
2019-03-19T00:16:12.142Z,22.75
2019-03-19T00:17:09.065Z,22.81
2019-03-19T00:18:12.661Z,22.70
2019-03-19T00:19:10.132Z,22.75
2019-03-19T00:20:07.795Z,22.78
2019-03-19T00:21:08.935Z,22.72
2019-03-19T00:22:08.015Z,22.72
2019-03-19T00:23:07.805Z,22.85
2019-03-19T00:24:10.369Z,22.73
2019-03-19T00:25:07.941Z,22.76
2019-03-19T00:26:07.956Z,22.72
2019-03-19T00:27:11.459Z,22.75
2019-03-19T00:28:10.892Z,22.70
2019-03-19T00:29:08.310Z,22.72
2019-03-19T00:30:08.213Z,22.72
2019-03-19T00:31:08.608Z,22.69
2019-03-19T00:32:09.189Z,22.80
2019-03-19T00:33:08.583Z,22.73
2019-03-19T00:34:08.045Z,22.73
2019-03-19T00:35:08.365Z,22.69
2019-03-19T00:36:07.854Z,22.78
2019-03-19T00:37:10.665Z,22.75
2019-03-19T00:38:08.663Z,22.75
2019-03-19T00:39:08.193Z,22.70
2019-03-19T00:40:08.771Z,22.73
2019-03-19T00:41:08.004Z,22.75
2019-03-19T00:42:07.552Z,22.78
2019-03-19T00:43:08.962Z,22.70
2019-03-19T00:44:08.316Z,22.72
2019-03-19T00:45:07.950Z,22.73
2019-03-19T00:46:11.338Z,22.72
2019-03-19T00:47:08.514Z,22.78
2019-03-19T00:48:07.622Z,22.73
2019-03-19T00:49:07.656Z,22.65
2019-03-19T00:50:07.510Z,22.73
2019-03-19T00:51:07.576Z,22.76
2019-03-19T00:52:07.654Z,22.75
2019-03-19T00:53:08.653Z,22.70
2019-03-19T00:54:08.928Z,22.76
2019-03-19T00:55:07.457Z,22.73
2019-03-19T00:56:08.825Z,22.69
2019-03-19T00:57:08.961Z,22.70
2019-03-19T00:58:10.718Z,22.76
2019-03-19T00:59:07.939Z,22.73
2019-03-19T01:00:07.334Z,22.70
2019-03-19T01:01:07.781Z,22.75
2019-03-19T01:02:07.312Z,22.72
2019-03-19T01:03:07.320Z,22.76
2019-03-19T01:04:11.548Z,22.69
2019-03-19T01:05:07.415Z,22.72
2019-03-19T01:06:10.839Z,22.73
2019-03-19T01:07:07.816Z,22.78
2019-03-19T01:08:07.283Z,22.73
2019-03-19T01:09:07.896Z,22.70
2019-03-19T01:10:10.909Z,22.73
2019-03-19T01:11:09.947Z,22.72
2019-03-19T01:12:10.577Z,22.75
2019-03-19T01:13:07.893Z,22.69
2019-03-19T01:14:11.375Z,22.75
2019-03-19T01:15:08.510Z,22.75
2019-03-19T01:16:07.456Z,22.69
2019-03-19T01:17:07.168Z,22.72
2019-03-19T01:18:08.308Z,22.72
2019-03-19T01:19:08.338Z,22.72
2019-03-19T01:20:10.199Z,22.68
2019-03-19T01:21:07.564Z,22.72
2019-03-19T01:22:10.601Z,22.70
2019-03-19T01:23:07.212Z,22.73
2019-03-19T01:24:07.247Z,22.72
2019-03-19T01:25:07.244Z,22.68
2019-03-19T01:26:08.839Z,22.66
2019-03-19T01:27:07.367Z,22.70
2019-03-19T01:28:10.748Z,22.69
2019-03-19T01:29:08.586Z,22.75
2019-03-19T01:30:09.194Z,22.73
2019-03-19T01:31:08.403Z,22.73
2019-03-19T01:32:07.169Z,22.78
2019-03-19T01:33:08.649Z,22.73
2019-03-19T01:34:08.767Z,22.72
2019-03-19T01:35:07.457Z,22.65
2019-03-19T01:36:10.022Z,22.73
2019-03-19T01:37:08.350Z,22.72
2019-03-19T01:38:10.078Z,22.70
2019-03-19T01:39:07.169Z,22.70
2019-03-19T01:40:08.358Z,22.69
2019-03-19T01:41:08.936Z,22.69
2019-03-19T01:42:08.603Z,22.69
2019-03-19T01:43:07.653Z,22.63
2019-03-19T01:44:08.339Z,22.68
2019-03-19T01:45:08.330Z,22.69
2019-03-19T01:46:10.921Z,22.63
2019-03-19T01:47:07.167Z,22.68
2019-03-19T01:48:08.036Z,22.76
2019-03-19T01:49:08.184Z,22.60
2019-03-19T01:50:07.377Z,22.65
2019-03-19T01:51:06.981Z,22.72
2019-03-19T01:52:08.001Z,22.69
2019-03-19T01:53:07.085Z,22.68
2019-03-19T01:54:07.241Z,22.66
2019-03-19T01:55:06.746Z,22.70
2019-03-19T01:56:08.311Z,22.66
2019-03-19T01:57:06.889Z,22.69
2019-03-19T01:58:07.108Z,22.70
2019-03-19T01:59:06.671Z,22.73
2019-03-19T02:00:07.947Z,22.69
2019-03-19T02:01:08.190Z,22.72
2019-03-19T02:02:10.129Z,22.72
2019-03-19T02:03:08.075Z,22.75
2019-03-19T02:04:09.259Z,22.73
2019-03-19T02:05:07.127Z,22.68
2019-03-19T02:06:07.260Z,22.65
2019-03-19T02:07:06.741Z,22.66
2019-03-19T02:08:11.623Z,22.70
2019-03-19T02:09:06.801Z,22.69
2019-03-19T02:10:09.843Z,22.75
2019-03-19T02:11:08.205Z,22.65
2019-03-19T02:12:06.686Z,22.72
2019-03-19T02:13:07.302Z,22.73
2019-03-19T02:14:06.683Z,22.75
2019-03-19T02:15:06.650Z,22.73
2019-03-19T02:16:09.868Z,22.69
2019-03-19T02:17:07.592Z,22.75
2019-03-19T02:18:10.049Z,22.70
2019-03-19T02:19:08.030Z,22.69
2019-03-19T02:20:06.583Z,22.68
2019-03-19T02:21:06.919Z,22.70
2019-03-19T02:22:08.471Z,22.68
2019-03-19T02:23:10.823Z,22.70
2019-03-19T02:24:07.052Z,22.70
2019-03-19T02:25:07.804Z,22.73
2019-03-19T02:26:15.897Z,22.76
2019-03-19T02:27:11.817Z,22.76
2019-03-19T02:28:08.661Z,22.63
2019-03-19T02:29:06.948Z,22.69
2019-03-19T02:30:09.315Z,22.73
2019-03-19T02:31:06.963Z,22.68
2019-03-19T02:32:06.970Z,22.73
2019-03-19T02:33:06.801Z,22.75
2019-03-19T02:34:08.069Z,22.62
2019-03-19T02:35:06.772Z,22.76
2019-03-19T02:36:06.799Z,22.70
2019-03-19T02:37:06.752Z,22.63
2019-03-19T02:38:06.707Z,22.68
2019-03-19T02:39:06.391Z,22.69
2019-03-19T02:40:07.203Z,22.66
2019-03-19T02:41:07.721Z,22.66
2019-03-19T02:42:10.523Z,22.65
2019-03-19T02:43:07.046Z,22.65
2019-03-19T02:44:06.308Z,22.72
2019-03-19T02:45:06.386Z,22.68
2019-03-19T02:46:08.759Z,22.68
2019-03-19T02:47:06.702Z,22.73
2019-03-19T02:48:06.620Z,22.69
2019-03-19T02:49:09.427Z,22.72
2019-03-19T02:50:08.599Z,22.65
2019-03-19T02:51:06.411Z,22.70
2019-03-19T02:52:08.627Z,22.60
2019-03-19T02:53:06.162Z,22.63
2019-03-19T02:54:07.548Z,22.63
2019-03-19T02:55:06.079Z,22.68
2019-03-19T02:56:07.573Z,22.76
2019-03-19T02:57:06.126Z,22.60
2019-03-19T02:58:18.370Z,22.75
2019-03-19T02:59:06.218Z,22.66
2019-03-19T03:00:06.040Z,22.66
2019-03-19T03:02:07.521Z,22.66
2019-03-19T03:03:09.597Z,22.75
2019-03-19T03:04:10.028Z,22.75
2019-03-19T03:05:07.231Z,22.73
2019-03-19T03:06:07.599Z,22.70
2019-03-19T03:07:06.068Z,22.65
2019-03-19T03:08:06.060Z,22.75
2019-03-19T03:09:06.822Z,22.65
2019-03-19T03:10:08.622Z,22.70
2019-03-19T03:11:06.050Z,22.73
2019-03-19T03:12:06.507Z,22.68
2019-03-19T03:13:07.389Z,22.68
2019-03-19T03:14:06.091Z,22.62
2019-03-19T03:15:06.396Z,22.66
2019-03-19T03:16:07.934Z,22.65
2019-03-19T03:17:07.414Z,22.70
2019-03-19T03:18:05.962Z,22.72
2019-03-19T03:19:05.769Z,22.70
2019-03-19T03:20:05.917Z,22.72
2019-03-19T03:21:06.076Z,22.62
2019-03-19T03:22:07.210Z,22.70
2019-03-19T03:23:09.764Z,22.72
2019-03-19T03:24:06.448Z,22.69
2019-03-19T03:25:06.488Z,22.69
2019-03-19T03:26:06.500Z,22.68
2019-03-19T03:27:06.821Z,22.68
2019-03-19T03:28:08.790Z,22.65
2019-03-19T03:29:05.704Z,22.70
2019-03-19T03:30:07.316Z,22.68
2019-03-19T03:31:05.856Z,22.68
2019-03-19T03:32:08.968Z,22.70
2019-03-19T03:33:05.622Z,22.63
2019-03-19T03:34:09.713Z,22.62
2019-03-19T03:35:05.591Z,22.75
2019-03-19T03:36:08.037Z,22.70
2019-03-19T03:37:07.111Z,22.68
2019-03-19T03:38:06.442Z,22.65
2019-03-19T03:39:05.774Z,22.65
2019-03-19T03:40:05.581Z,22.73
2019-03-19T03:41:06.609Z,22.63
2019-03-19T03:42:08.474Z,22.72
2019-03-19T03:43:05.816Z,22.65
2019-03-19T03:44:08.699Z,22.63
2019-03-19T03:45:05.691Z,22.72
2019-03-19T03:46:08.341Z,22.72
2019-03-19T03:47:05.461Z,22.68
2019-03-19T03:48:06.786Z,22.62
2019-03-19T03:49:07.060Z,22.66
2019-03-19T03:50:06.164Z,22.65
2019-03-19T03:51:06.287Z,22.69
2019-03-19T03:52:08.281Z,22.70
2019-03-19T03:53:07.572Z,22.55
2019-03-19T03:54:05.957Z,22.66
2019-03-19T03:55:07.347Z,22.63
2019-03-19T03:56:06.029Z,22.54
2019-03-19T03:57:05.722Z,22.68
2019-03-19T03:58:08.214Z,22.72
2019-03-19T03:59:05.465Z,22.69
2019-03-19T04:00:05.392Z,22.68
2019-03-19T04:01:06.465Z,22.63
2019-03-19T04:02:06.369Z,22.63
2019-03-19T04:03:05.856Z,22.69
2019-03-19T04:04:08.863Z,22.57
2019-03-19T04:05:07.907Z,22.68
2019-03-19T04:06:06.956Z,22.66
2019-03-19T04:07:09.431Z,22.72
2019-03-19T04:08:06.702Z,22.62
2019-03-19T04:09:09.146Z,22.70
2019-03-19T04:10:05.826Z,22.65
2019-03-19T04:11:05.380Z,22.63
2019-03-19T04:12:05.658Z,22.66
2019-03-19T04:13:05.947Z,22.65
2019-03-19T04:14:05.599Z,22.70
2019-03-19T04:15:05.219Z,22.62
2019-03-19T04:16:06.439Z,22.70
2019-03-19T04:17:08.156Z,22.62
2019-03-19T04:18:05.488Z,22.65
2019-03-19T04:19:05.377Z,22.60
2019-03-19T04:20:07.190Z,22.62
2019-03-19T04:21:06.802Z,22.63
2019-03-19T04:22:15.812Z,22.59
2019-03-19T04:23:06.587Z,22.68
2019-03-19T04:24:07.996Z,22.55
2019-03-19T04:25:05.551Z,22.68
2019-03-19T04:26:05.213Z,22.57
2019-03-19T04:27:15.489Z,22.62
2019-03-19T04:28:06.326Z,22.65
2019-03-19T04:29:05.088Z,22.69
2019-03-19T04:30:05.286Z,22.63
2019-03-19T04:31:08.538Z,22.65
2019-03-19T04:32:06.689Z,22.55
2019-03-19T04:33:05.287Z,22.68
2019-03-19T04:34:09.001Z,22.54
2019-03-19T04:35:06.670Z,22.65
2019-03-19T04:36:06.341Z,22.66
2019-03-19T04:37:05.364Z,22.62
2019-03-19T04:38:04.893Z,22.63
2019-03-19T04:39:05.346Z,22.54
2019-03-19T04:40:05.102Z,22.68
2019-03-19T04:41:05.242Z,22.54
2019-03-19T04:42:08.210Z,22.63
2019-03-19T04:43:04.825Z,22.66
2019-03-19T04:44:04.830Z,22.55
2019-03-19T04:45:04.862Z,22.60
2019-03-19T04:46:05.791Z,22.66
2019-03-19T04:47:05.386Z,22.68
2019-03-19T04:48:04.808Z,22.65
2019-03-19T04:49:05.906Z,22.55
2019-03-19T04:50:05.282Z,22.63
2019-03-19T04:51:08.311Z,22.63
2019-03-19T04:52:05.511Z,22.62
2019-03-19T04:53:04.736Z,22.60
2019-03-19T04:54:04.847Z,22.63
2019-03-19T04:55:05.350Z,22.60
2019-03-19T04:56:05.602Z,22.66
2019-03-19T04:57:04.913Z,22.60
2019-03-19T04:58:06.950Z,22.54
2019-03-19T04:59:04.843Z,22.68
2019-03-19T05:00:07.661Z,22.55
2019-03-19T05:01:05.320Z,22.68
2019-03-19T05:02:06.083Z,22.59
2019-03-19T05:03:04.758Z,22.69
2019-03-19T05:04:06.404Z,22.65
2019-03-19T05:05:09.162Z,22.59
2019-03-19T05:06:04.588Z,22.63
2019-03-19T05:07:04.572Z,22.69
2019-03-19T05:08:05.109Z,22.65
2019-03-19T05:09:05.256Z,22.66
2019-03-19T05:10:06.356Z,22.69
2019-03-19T05:11:04.713Z,22.63
2019-03-19T05:12:04.717Z,22.63
2019-03-19T05:13:06.461Z,22.62
2019-03-19T05:14:05.073Z,22.65
2019-03-19T05:15:06.258Z,22.60
2019-03-19T05:16:04.656Z,22.65
2019-03-19T05:17:07.434Z,22.63
2019-03-19T05:18:05.939Z,22.62
2019-03-19T05:19:05.648Z,22.57
2019-03-19T05:20:08.026Z,22.63
2019-03-19T05:21:04.497Z,22.65
2019-03-19T05:22:08.378Z,22.63
2019-03-19T05:23:05.051Z,22.60
2019-03-19T05:24:05.787Z,22.55
2019-03-19T05:25:04.619Z,22.66
2019-03-19T05:26:04.542Z,22.66
2019-03-19T05:27:04.894Z,22.65
2019-03-19T05:28:09.338Z,22.55
2019-03-19T05:29:05.644Z,22.62
2019-03-19T05:30:04.731Z,22.62
2019-03-19T05:31:04.325Z,22.66
2019-03-19T05:32:04.587Z,22.66
2019-03-19T05:33:04.321Z,22.53
2019-03-19T05:34:06.308Z,22.57
2019-03-19T05:35:06.367Z,22.55
2019-03-19T05:36:05.916Z,22.66
2019-03-19T05:37:04.237Z,22.69
2019-03-19T05:38:05.680Z,22.62
2019-03-19T05:39:04.363Z,22.63
2019-03-19T05:40:06.988Z,22.69
2019-03-19T05:41:04.219Z,22.68
2019-03-19T05:42:04.167Z,22.65
2019-03-19T05:43:04.416Z,22.59
2019-03-19T05:44:05.967Z,22.63
2019-03-19T05:45:04.360Z,22.66
2019-03-19T05:46:05.109Z,22.60
2019-03-19T05:47:04.249Z,22.60
2019-03-19T05:48:05.515Z,22.65
2019-03-19T05:49:04.385Z,22.66
2019-03-19T05:50:04.089Z,22.59
2019-03-19T05:51:07.085Z,22.69
2019-03-19T05:52:05.850Z,22.65
2019-03-19T05:53:05.638Z,22.65
2019-03-19T05:54:04.244Z,22.68
2019-03-19T05:55:04.044Z,22.62
2019-03-19T05:56:05.956Z,22.68
2019-03-19T05:57:05.275Z,22.63
2019-03-19T05:58:06.822Z,22.68
2019-03-19T05:59:05.350Z,22.55
2019-03-19T06:00:03.988Z,22.66
2019-03-19T06:01:05.917Z,22.63
2019-03-19T06:02:04.283Z,22.65
2019-03-19T06:03:03.940Z,22.62
2019-03-19T06:04:07.733Z,22.59
2019-03-19T06:05:05.580Z,22.66
2019-03-19T06:06:05.879Z,22.54
2019-03-19T06:07:04.201Z,22.60
2019-03-19T06:08:04.477Z,22.60
2019-03-19T06:09:04.302Z,22.63
2019-03-19T06:10:08.552Z,22.60
2019-03-19T06:11:04.160Z,22.66
2019-03-19T06:12:05.516Z,22.70
2019-03-19T06:13:05.180Z,22.66
2019-03-19T06:14:05.416Z,22.60
2019-03-19T06:15:03.808Z,22.68
2019-03-19T06:16:09.832Z,22.63
2019-03-19T06:17:05.354Z,22.62
2019-03-19T06:18:08.479Z,22.62
2019-03-19T06:19:04.693Z,22.65
2019-03-19T06:20:06.160Z,22.72
2019-03-19T06:21:04.026Z,22.68
2019-03-19T06:22:14.399Z,22.63
2019-03-19T06:23:06.287Z,22.65
2019-03-19T06:24:05.305Z,22.68
2019-03-19T06:25:08.270Z,22.65
2019-03-19T06:26:05.587Z,22.65
2019-03-19T06:27:06.097Z,22.63
2019-03-19T06:28:05.307Z,22.72
2019-03-19T06:29:05.363Z,22.63
2019-03-19T06:30:05.405Z,22.60
2019-03-19T06:31:07.646Z,22.60
2019-03-19T06:32:08.561Z,22.70
2019-03-19T06:33:07.083Z,22.70
2019-03-19T06:34:13.793Z,22.72
2019-03-19T06:35:09.373Z,22.73
2019-03-19T06:36:05.273Z,22.73
2019-03-19T06:37:07.687Z,22.66
2019-03-19T06:38:06.714Z,22.66
2019-03-19T06:39:15.555Z,22.63
2019-03-19T06:40:14.240Z,22.69
2019-03-19T06:41:06.448Z,22.72
2019-03-19T06:42:07.151Z,22.72
2019-03-19T06:43:04.678Z,22.65
2019-03-19T06:44:03.730Z,22.65
2019-03-19T06:45:06.390Z,22.73
2019-03-19T06:48:23.789Z,22.70
2019-03-19T06:49:21.943Z,22.68
2019-03-19T06:50:20.935Z,22.75
2019-03-19T06:51:44.979Z,22.66
2019-03-19T06:52:23.754Z,22.60
2019-03-19T06:53:29.630Z,22.63
2019-03-19T06:54:24.817Z,22.68
2019-03-19T06:55:29.646Z,22.66
2019-03-19T06:56:29.210Z,22.65
2019-03-19T07:00:05.888Z,22.66
2019-03-19T07:01:03.779Z,22.65
2019-03-19T07:02:04.779Z,22.69
2019-03-19T07:04:27.411Z,22.65
2019-03-19T07:05:18.403Z,22.65
2019-03-19T07:06:17.888Z,22.65
2019-03-19T07:07:18.128Z,22.72
2019-03-19T07:08:17.644Z,22.65
2019-03-19T07:09:17.699Z,22.73
2019-03-19T07:10:22.282Z,22.63
2019-03-19T07:11:18.168Z,22.65
2019-03-19T07:12:17.656Z,22.73
2019-03-19T07:13:17.760Z,22.76
2019-03-19T07:14:17.557Z,22.66
2019-03-19T07:15:18.282Z,22.75
2019-03-19T07:16:26.266Z,22.65
2019-03-19T07:17:17.744Z,22.72
2019-03-19T07:18:17.661Z,22.70
2019-03-19T07:19:17.492Z,22.70
2019-03-19T07:20:17.493Z,22.70
2019-03-19T07:21:17.963Z,22.66
2019-03-19T07:22:24.059Z,22.68
2019-03-19T07:23:17.948Z,22.66
2019-03-19T07:24:20.706Z,22.65
2019-03-19T07:25:18.207Z,22.68
2019-03-19T07:26:17.618Z,22.63
2019-03-19T07:27:21.830Z,22.65
2019-03-19T07:28:22.521Z,22.76
2019-03-19T07:29:20.635Z,22.73
2019-03-19T07:30:19.547Z,22.80
2019-03-19T07:31:17.385Z,22.75
2019-03-19T07:32:19.038Z,22.72
2019-03-19T07:33:17.572Z,22.76
2019-03-19T07:34:17.500Z,22.73
2019-03-19T07:35:17.317Z,22.69
2019-03-19T07:36:17.302Z,22.72
2019-03-19T07:37:17.832Z,22.63
2019-03-19T07:38:17.287Z,22.70
2019-03-19T07:39:17.272Z,22.75
2019-03-19T07:40:17.286Z,22.65
2019-03-19T07:41:17.699Z,22.75
2019-03-19T07:42:17.244Z,22.66
2019-03-19T07:43:17.228Z,22.76
2019-03-19T07:44:21.394Z,22.70
2019-03-19T07:45:17.209Z,22.66
2019-03-19T07:46:20.618Z,22.66
2019-03-19T07:47:17.193Z,22.69
2019-03-19T07:48:17.237Z,22.76
2019-03-19T07:49:17.859Z,22.73
2019-03-19T07:50:17.362Z,22.70
2019-03-19T07:51:17.138Z,22.69
2019-03-19T07:52:22.056Z,22.68
2019-03-19T07:53:17.194Z,22.70
2019-03-19T07:54:19.032Z,22.73
2019-03-19T07:55:17.607Z,22.68
2019-03-19T07:56:17.091Z,22.68
2019-03-19T07:57:17.077Z,22.72
2019-03-19T07:58:17.959Z,22.72
2019-03-19T07:59:17.200Z,22.73
2019-03-19T08:00:17.049Z,22.68
2019-03-19T08:01:17.144Z,22.69
2019-03-19T08:02:17.623Z,22.76
2019-03-19T08:03:17.009Z,22.69
2019-03-19T08:04:17.286Z,22.69
2019-03-19T08:05:16.985Z,22.69
2019-03-19T08:06:17.959Z,22.68
2019-03-19T08:07:16.976Z,22.72
2019-03-19T08:08:16.959Z,22.73
2019-03-19T08:09:19.680Z,22.73
2019-03-19T08:10:16.938Z,22.73
2019-03-19T08:11:17.132Z,22.69
2019-03-19T08:12:18.629Z,22.70
2019-03-19T08:13:16.890Z,22.76
2019-03-19T08:14:17.140Z,22.68
2019-03-19T08:15:17.161Z,22.68
2019-03-19T08:16:26.986Z,22.75
2019-03-19T08:17:18.014Z,22.78
2019-03-19T08:18:17.811Z,22.73
2019-03-19T08:19:17.123Z,22.68
2019-03-19T08:20:17.122Z,22.72
2019-03-19T08:21:18.507Z,22.69
2019-03-19T08:22:16.792Z,22.73
2019-03-19T08:23:16.780Z,22.76
2019-03-19T08:24:16.774Z,22.78
2019-03-19T08:25:18.178Z,22.69
2019-03-19T08:26:16.766Z,22.66
2019-03-19T08:27:17.795Z,22.70
2019-03-19T08:28:16.718Z,22.63
2019-03-19T08:29:17.328Z,22.73
2019-03-19T08:30:16.699Z,22.76
2019-03-19T08:31:16.950Z,22.69
2019-03-19T08:32:16.679Z,22.70
2019-03-19T08:33:18.956Z,22.73
2019-03-19T08:34:17.002Z,22.72
2019-03-19T08:35:16.647Z,22.76
2019-03-19T08:36:17.549Z,22.69
2019-03-19T08:37:16.628Z,22.76
2019-03-19T08:38:17.078Z,22.72
2019-03-19T08:39:16.854Z,22.76
2019-03-19T08:40:16.591Z,22.80
2019-03-19T08:41:18.452Z,22.84
2019-03-19T08:42:18.799Z,22.69
2019-03-19T08:43:20.364Z,22.70
2019-03-19T08:44:16.553Z,22.83
2019-03-19T08:45:16.570Z,22.69
2019-03-19T08:46:17.524Z,22.73
2019-03-19T08:47:16.658Z,22.80
2019-03-19T08:48:19.401Z,22.72
2019-03-19T08:49:16.554Z,22.69
2019-03-19T08:50:16.475Z,22.72
2019-03-19T08:51:18.357Z,22.72
2019-03-19T08:52:18.235Z,22.87
2019-03-19T08:53:16.858Z,22.78
2019-03-19T08:54:16.439Z,22.78
2019-03-19T08:55:16.427Z,22.72
2019-03-19T08:56:16.731Z,22.76
2019-03-19T08:57:16.433Z,22.81
2019-03-19T08:58:16.388Z,22.76
2019-03-19T08:59:16.718Z,22.75
2019-03-19T09:00:22.067Z,22.75
2019-03-19T09:01:16.367Z,22.85
2019-03-19T09:02:17.444Z,22.81
2019-03-19T09:03:17.355Z,22.78
2019-03-19T09:04:16.330Z,22.72
2019-03-19T09:05:17.435Z,22.73
2019-03-19T09:06:16.303Z,22.80
2019-03-19T09:07:20.150Z,22.76
2019-03-19T09:08:17.428Z,22.73
2019-03-19T09:09:17.080Z,22.73
2019-03-19T09:10:16.930Z,22.73
2019-03-19T09:11:16.602Z,22.70
2019-03-19T09:12:17.229Z,22.75
2019-03-19T09:13:16.248Z,22.76
2019-03-19T09:14:17.015Z,22.72
2019-03-19T09:15:18.634Z,22.78
2019-03-19T09:16:16.810Z,22.78
2019-03-19T09:17:20.068Z,22.76
2019-03-19T09:18:17.620Z,22.73
2019-03-19T09:19:17.345Z,22.80
2019-03-19T09:20:17.190Z,22.81
2019-03-19T09:21:20.802Z,22.76
2019-03-19T09:22:22.963Z,22.73
2019-03-19T09:23:16.130Z,22.70
2019-03-19T09:24:16.753Z,22.73
2019-03-19T09:25:16.490Z,22.75
2019-03-19T09:26:19.031Z,22.76
2019-03-19T09:27:19.474Z,22.75
2019-03-19T09:28:16.523Z,22.84
2019-03-19T09:29:19.872Z,22.78
2019-03-19T09:30:17.450Z,22.83
2019-03-19T09:31:16.552Z,22.76
2019-03-19T09:32:16.078Z,22.72
2019-03-19T09:33:16.541Z,22.75
2019-03-19T09:34:16.259Z,22.73
2019-03-19T09:35:15.981Z,22.78
2019-03-19T09:36:15.996Z,22.76
2019-03-19T09:37:21.060Z,22.72
2019-03-19T09:38:17.876Z,22.81
2019-03-19T09:39:16.879Z,22.80
2019-03-19T09:40:17.115Z,22.75
2019-03-19T09:41:22.002Z,22.75
2019-03-19T09:42:16.041Z,22.76
2019-03-19T09:43:17.092Z,22.72
2019-03-19T09:44:16.630Z,22.80
2019-03-19T09:45:15.890Z,22.75
2019-03-19T09:46:18.655Z,22.78
2019-03-19T09:47:15.852Z,22.78
2019-03-19T09:48:16.299Z,22.81
2019-03-19T09:49:15.824Z,22.83
2019-03-19T09:50:15.807Z,22.80
2019-03-19T09:51:17.785Z,22.81
2019-03-19T09:52:15.786Z,22.80
2019-03-19T09:53:18.612Z,22.80
2019-03-19T09:54:15.876Z,22.81
2019-03-19T09:55:16.520Z,22.70
2019-03-19T09:56:15.738Z,22.76
2019-03-19T09:57:15.984Z,22.81
2019-03-19T09:58:16.793Z,22.85
2019-03-19T09:59:15.741Z,22.80
2019-03-19T10:00:15.691Z,22.78
2019-03-19T10:01:15.681Z,22.76
2019-03-19T10:02:15.719Z,22.81
2019-03-19T10:03:15.691Z,22.75
2019-03-19T10:04:15.645Z,22.81
2019-03-19T10:05:15.637Z,22.78
2019-03-19T10:06:15.634Z,22.81
2019-03-19T10:07:15.778Z,22.83
2019-03-19T10:08:15.608Z,22.78
2019-03-19T10:09:15.641Z,22.80
2019-03-19T10:10:15.692Z,22.83
2019-03-19T10:11:15.620Z,22.81
2019-03-19T10:12:16.560Z,22.80
2019-03-19T10:13:15.550Z,22.81
2019-03-19T10:14:15.610Z,22.84
2019-03-19T10:15:15.552Z,22.80
2019-03-19T10:16:15.960Z,22.83
2019-03-19T10:17:15.502Z,22.81
2019-03-19T10:18:15.511Z,22.83
2019-03-19T10:19:16.486Z,22.84
2019-03-19T10:20:17.906Z,22.83
2019-03-19T10:21:16.639Z,22.75
2019-03-19T10:22:15.453Z,22.83
2019-03-19T10:23:16.112Z,22.83
2019-03-19T10:24:16.065Z,22.83
2019-03-19T10:25:15.446Z,22.85
2019-03-19T10:26:15.863Z,22.90
2019-03-19T10:27:15.648Z,22.80
2019-03-19T10:28:15.608Z,22.80
2019-03-19T10:29:15.395Z,22.83
2019-03-19T10:30:15.367Z,22.87
2019-03-19T10:31:16.342Z,22.78
2019-03-19T10:32:15.338Z,22.80
2019-03-19T10:33:21.432Z,22.81
2019-03-19T10:34:15.332Z,22.83
2019-03-19T10:35:15.308Z,22.83
2019-03-19T10:36:15.299Z,22.81
2019-03-19T10:37:16.707Z,22.83
2019-03-19T10:38:15.280Z,22.87
2019-03-19T10:39:15.286Z,22.84
2019-03-19T10:40:15.272Z,22.84
2019-03-19T10:41:16.126Z,22.84
2019-03-19T10:42:15.569Z,22.80
2019-03-19T10:43:15.351Z,22.84
2019-03-19T10:44:15.202Z,22.81
2019-03-19T10:45:15.245Z,22.85
2019-03-19T10:46:15.670Z,22.84
2019-03-19T10:47:15.389Z,22.88
2019-03-19T10:48:18.252Z,22.84
2019-03-19T10:49:15.175Z,22.88
2019-03-19T10:50:15.138Z,22.76
2019-03-19T10:51:36.951Z,22.81
2019-03-19T10:52:37.142Z,22.88
2019-03-19T10:53:15.377Z,22.87
2019-03-19T10:54:15.222Z,22.81
2019-03-19T10:55:16.791Z,22.88
2019-03-19T10:56:17.225Z,22.84
2019-03-19T10:57:18.735Z,22.85
2019-03-19T10:58:15.062Z,22.84
2019-03-19T10:59:15.647Z,22.94
2019-03-19T11:00:15.044Z,22.91
2019-03-19T11:01:17.980Z,22.90
2019-03-19T11:02:15.028Z,22.90
2019-03-19T11:03:15.217Z,22.81
2019-03-19T11:04:20.956Z,22.88
2019-03-19T11:05:16.967Z,22.88
2019-03-19T11:06:14.989Z,22.91
2019-03-19T11:07:18.679Z,22.90
2019-03-19T11:08:15.705Z,22.91
2019-03-19T11:09:17.769Z,22.83
2019-03-19T11:10:15.307Z,22.90
2019-03-19T11:11:15.100Z,22.76
2019-03-19T11:12:15.202Z,22.83
2019-03-19T11:13:18.344Z,22.91
2019-03-19T11:14:17.814Z,22.90
2019-03-19T11:15:18.092Z,22.90
2019-03-19T11:16:14.858Z,22.80
2019-03-19T11:17:19.302Z,22.85
2019-03-19T11:18:16.775Z,22.81
2019-03-19T11:19:18.054Z,22.84
2019-03-19T11:20:17.511Z,22.88
2019-03-19T11:21:24.928Z,22.90
2019-03-19T11:22:15.614Z,22.91
2019-03-19T11:23:18.423Z,22.84
2019-03-19T11:24:33.967Z,22.87
2019-03-19T11:25:17.765Z,22.81
2019-03-19T11:26:20.633Z,22.85
2019-03-19T11:27:15.765Z,22.85
2019-03-19T11:28:18.936Z,22.81
2019-03-19T11:29:17.841Z,22.80
2019-03-19T11:30:16.433Z,22.83
2019-03-19T11:31:14.708Z,22.84
2019-03-19T11:32:15.115Z,22.85
2019-03-19T11:33:15.027Z,22.85
2019-03-19T11:35:17.924Z,22.83
2019-03-19T11:36:22.511Z,22.83
2019-03-19T11:37:16.668Z,22.88
2019-03-19T11:40:13.876Z,22.78
2019-03-19T11:41:12.768Z,22.81
2019-03-19T11:42:15.581Z,22.88
2019-03-19T11:43:14.406Z,22.87
2019-03-19T11:46:29.965Z,22.83
2019-03-19T11:47:32.690Z,22.84
2019-03-19T11:48:34.764Z,22.87
2019-03-19T11:49:37.802Z,22.85
2019-03-19T11:50:29.147Z,22.80
2019-03-19T11:51:36.687Z,22.81
2019-03-19T11:52:28.381Z,22.81
2019-03-19T11:53:28.828Z,22.87
2019-03-19T11:54:28.817Z,22.87
2019-03-19T11:55:28.479Z,22.85
2019-03-19T11:56:27.673Z,22.85
2019-03-19T11:57:28.172Z,22.81
2019-03-19T11:59:37.914Z,22.81
2019-03-19T12:00:36.301Z,22.83
2019-03-19T12:01:35.757Z,22.93
2019-03-19T12:02:40.020Z,22.85
2019-03-19T12:03:36.523Z,22.78
2019-03-19T12:05:00.885Z,22.80
2019-03-19T12:05:35.956Z,22.85
2019-03-19T12:06:38.583Z,22.88
2019-03-19T12:07:39.866Z,22.80
2019-03-19T12:08:36.576Z,22.81
2019-03-19T12:09:35.178Z,22.80
2019-03-19T12:10:35.495Z,22.80
2019-03-19T12:11:37.214Z,22.84
2019-03-19T12:12:42.218Z,22.81
2019-03-19T12:13:36.327Z,22.84
2019-03-19T12:14:41.602Z,22.83
2019-03-19T12:15:35.616Z,22.81
2019-03-19T12:16:35.611Z,22.76
2019-03-19T12:17:36.527Z,22.85
2019-03-19T12:18:42.587Z,22.88
2019-03-19T12:19:35.601Z,22.84
2019-03-19T12:20:50.748Z,22.76
2019-03-19T12:21:39.786Z,22.83
2019-03-19T12:22:36.243Z,22.81
2019-03-19T12:23:36.596Z,22.81
2019-03-19T12:24:36.277Z,22.83
2019-03-19T12:25:35.859Z,22.93
2019-03-19T12:26:35.502Z,22.81
2019-03-19T12:27:35.669Z,22.84
2019-03-19T12:28:39.790Z,22.87
2019-03-19T12:29:38.322Z,22.81
2019-03-19T12:31:13.686Z,22.81
2019-03-19T12:31:43.481Z,22.78
2019-03-19T12:32:38.482Z,22.80
2019-03-19T12:33:41.221Z,22.83
2019-03-19T12:34:37.377Z,22.80
2019-03-19T13:02:19.307Z,22.81
2019-03-19T13:03:18.281Z,22.80
2019-03-19T13:04:17.843Z,22.81
2019-03-19T13:05:22.466Z,22.80
2019-03-19T13:06:20.803Z,22.78
2019-03-19T13:07:21.298Z,22.88
2019-03-19T13:08:20.467Z,22.84
2019-03-19T13:09:18.063Z,22.84
2019-03-19T13:10:17.692Z,22.81
2019-03-19T13:11:17.998Z,22.81
2019-03-19T13:12:18.028Z,22.76
2019-03-19T13:13:18.217Z,22.83
2019-03-19T13:14:20.639Z,22.80
2019-03-19T13:15:19.265Z,22.80
2019-03-19T13:16:19.986Z,22.83
2019-03-19T13:17:17.687Z,22.88
2019-03-19T13:18:18.672Z,22.78
2019-03-19T13:19:18.089Z,22.84
2019-03-19T13:20:19.341Z,22.83
2019-03-19T13:21:19.424Z,22.78
2019-03-19T13:22:19.073Z,22.81
2019-03-19T13:23:17.686Z,22.84
2019-03-19T13:24:18.844Z,22.81
2019-03-19T13:25:17.604Z,22.83
2019-03-19T13:26:18.686Z,22.83
2019-03-19T13:27:18.524Z,22.80
2019-03-19T13:28:18.881Z,22.80
2019-03-19T13:29:18.257Z,22.85
2019-03-19T13:30:19.975Z,22.85
2019-03-19T13:31:18.273Z,22.85
2019-03-19T13:32:19.046Z,22.85